createdAt,value
2018-01-26T00:00:15.473Z,0.00
2018-01-26T00:01:15.449Z,0.00
2018-01-26T00:02:15.428Z,0.00
2018-01-26T00:03:15.404Z,0.00
2018-01-26T00:04:15.383Z,0.00
2018-01-26T00:05:15.360Z,0.00
2018-01-26T00:06:15.336Z,0.00
2018-01-26T00:07:15.314Z,0.00
2018-01-26T00:08:15.293Z,0.00
2018-01-26T00:09:15.269Z,0.00
2018-01-26T00:10:15.247Z,0.00
2018-01-26T00:11:15.224Z,0.00
2018-01-26T00:12:15.203Z,0.00
2018-01-26T00:13:15.179Z,0.00
2018-01-26T00:14:15.157Z,0.00
2018-01-26T00:15:15.134Z,0.00
2018-01-26T00:16:15.112Z,0.00
2018-01-26T00:17:15.089Z,0.00
2018-01-26T00:18:15.066Z,0.00
2018-01-26T00:19:15.043Z,0.00
2018-01-26T00:20:15.021Z,0.00
2018-01-26T00:21:14.998Z,0.00
2018-01-26T00:22:14.974Z,0.00
2018-01-26T00:23:14.953Z,0.00
2018-01-26T00:24:14.930Z,0.00
2018-01-26T00:25:14.907Z,0.00
2018-01-26T00:26:14.885Z,0.00
2018-01-26T00:27:14.863Z,0.00
2018-01-26T00:28:14.843Z,0.00
2018-01-26T00:29:14.816Z,0.00
2018-01-26T00:30:14.796Z,0.00
2018-01-26T00:31:14.771Z,0.00
2018-01-26T00:32:14.750Z,0.00
2018-01-26T00:33:14.725Z,0.00
2018-01-26T00:34:14.703Z,0.00
2018-01-26T00:35:14.681Z,0.00
2018-01-26T00:36:14.659Z,0.00
2018-01-26T00:37:14.635Z,0.00
2018-01-26T00:38:14.613Z,0.00
2018-01-26T00:39:14.591Z,0.00
2018-01-26T00:40:14.568Z,0.00
2018-01-26T00:41:14.547Z,0.00
2018-01-26T00:42:14.522Z,0.00
2018-01-26T00:43:14.501Z,0.00
2018-01-26T00:44:14.478Z,0.00
2018-01-26T00:45:14.458Z,0.00
2018-01-26T00:46:14.432Z,0.00
2018-01-26T00:47:14.410Z,0.00
2018-01-26T00:48:14.390Z,0.00
2018-01-26T00:49:14.365Z,0.00
2018-01-26T00:50:14.343Z,0.00
2018-01-26T00:51:14.321Z,0.00
2018-01-26T00:52:14.299Z,0.00
2018-01-26T00:53:14.276Z,0.00
2018-01-26T00:54:14.254Z,0.00
2018-01-26T00:55:14.231Z,0.00
2018-01-26T00:56:14.210Z,0.00
2018-01-26T00:57:14.187Z,0.00
2018-01-26T00:58:14.163Z,0.00
2018-01-26T00:59:14.141Z,0.00
2018-01-26T01:00:14.118Z,0.00
2018-01-26T01:01:14.096Z,0.00
2018-01-26T01:02:14.079Z,0.00
2018-01-26T01:03:14.051Z,0.00
2018-01-26T01:04:14.029Z,0.00
2018-01-26T01:05:14.005Z,0.00
2018-01-26T01:06:13.983Z,0.00
2018-01-26T01:07:14.007Z,0.00
2018-01-26T01:08:13.938Z,0.00
2018-01-26T01:09:13.915Z,0.00
2018-01-26T01:10:13.892Z,0.00
2018-01-26T01:11:13.871Z,0.00
2018-01-26T01:12:13.848Z,0.00
2018-01-26T01:13:13.824Z,0.00
2018-01-26T01:14:13.802Z,0.00
2018-01-26T01:15:13.798Z,0.00
2018-01-26T01:16:13.757Z,0.00
2018-01-26T01:17:13.733Z,0.00
2018-01-26T01:18:13.711Z,0.00
2018-01-26T01:19:13.690Z,0.00
2018-01-26T01:20:13.668Z,0.00
2018-01-26T01:21:13.644Z,0.00
2018-01-26T01:22:13.621Z,0.00
2018-01-26T01:23:13.600Z,0.00
2018-01-26T01:24:13.577Z,0.00
2018-01-26T01:25:13.555Z,0.00
2018-01-26T01:26:13.531Z,0.00
2018-01-26T01:27:13.511Z,0.00
2018-01-26T01:28:13.488Z,0.00
2018-01-26T01:29:13.464Z,0.00
2018-01-26T01:30:13.442Z,0.00
2018-01-26T01:31:13.422Z,0.00
2018-01-26T01:32:13.397Z,0.00
2018-01-26T01:33:13.425Z,0.00
2018-01-26T01:34:13.352Z,0.00
2018-01-26T01:35:13.329Z,0.00
2018-01-26T01:36:13.306Z,0.00
2018-01-26T01:37:13.284Z,0.00
2018-01-26T01:38:13.263Z,0.00
2018-01-26T01:39:13.240Z,0.00
2018-01-26T01:40:13.217Z,0.00
2018-01-26T01:41:13.194Z,0.00
2018-01-26T01:42:13.172Z,0.00
2018-01-26T01:43:13.150Z,0.00
2018-01-26T01:44:13.128Z,0.00
2018-01-26T01:45:13.105Z,0.00
2018-01-26T01:46:13.084Z,0.00
2018-01-26T01:47:13.059Z,0.00
2018-01-26T01:48:13.036Z,0.00
2018-01-26T01:49:13.014Z,0.00
2018-01-26T01:50:12.994Z,0.00
2018-01-26T01:51:12.969Z,0.00
2018-01-26T01:52:12.946Z,0.00
2018-01-26T01:53:12.923Z,0.00
2018-01-26T01:54:12.901Z,0.00
2018-01-26T01:55:12.879Z,0.00
2018-01-26T01:56:12.856Z,0.00
2018-01-26T01:57:12.841Z,0.00
2018-01-26T01:58:12.813Z,0.00
2018-01-26T01:59:12.787Z,0.00
2018-01-26T02:00:12.766Z,0.00
2018-01-26T02:01:12.741Z,0.00
2018-01-26T02:02:12.720Z,0.00
2018-01-26T02:03:12.696Z,0.00
2018-01-26T02:04:12.675Z,0.00
2018-01-26T02:05:12.652Z,0.00
2018-01-26T02:06:12.630Z,0.00
2018-01-26T02:07:12.607Z,0.00
2018-01-26T02:08:12.584Z,0.00
2018-01-26T02:09:12.560Z,0.00
2018-01-26T02:10:12.538Z,0.00
2018-01-26T02:11:12.517Z,0.00
2018-01-26T02:12:12.494Z,0.00
2018-01-26T02:13:12.471Z,0.00
2018-01-26T02:14:12.448Z,0.00
2018-01-26T02:15:12.426Z,0.00
2018-01-26T02:16:12.404Z,0.00
2018-01-26T02:17:12.381Z,0.00
2018-01-26T02:18:12.358Z,0.00
2018-01-26T02:19:12.335Z,0.00
2018-01-26T02:20:12.320Z,0.00
2018-01-26T02:21:12.290Z,0.00
2018-01-26T02:22:12.270Z,0.00
2018-01-26T02:23:12.246Z,0.00
2018-01-26T02:24:12.224Z,0.00
2018-01-26T02:25:12.205Z,0.00
2018-01-26T02:26:12.177Z,0.00
2018-01-26T02:27:12.156Z,0.00
2018-01-26T02:28:12.132Z,0.00
2018-01-26T02:29:12.110Z,0.00
2018-01-26T02:30:12.088Z,0.00
2018-01-26T02:31:12.066Z,0.00
2018-01-26T02:32:12.043Z,0.00
2018-01-26T02:33:12.021Z,0.00
2018-01-26T02:34:11.999Z,0.00
2018-01-26T02:35:11.976Z,0.00
2018-01-26T02:36:11.954Z,0.00
2018-01-26T02:37:11.930Z,0.00
2018-01-26T02:38:11.909Z,0.00
2018-01-26T02:39:11.886Z,0.00
2018-01-26T02:40:11.923Z,0.00
2018-01-26T02:41:11.841Z,0.00
2018-01-26T02:42:11.818Z,0.00
2018-01-26T02:43:11.796Z,0.00
2018-01-26T02:44:11.776Z,0.00
2018-01-26T02:45:11.750Z,0.00
2018-01-26T02:46:11.729Z,0.00
2018-01-26T02:47:11.706Z,0.00
2018-01-26T02:48:11.683Z,0.00
2018-01-26T02:49:11.662Z,0.00
2018-01-26T02:50:11.637Z,0.00
2018-01-26T02:51:11.616Z,0.00
2018-01-26T02:52:11.593Z,0.00
2018-01-26T02:53:11.569Z,0.00
2018-01-26T02:54:11.548Z,0.00
2018-01-26T02:55:11.525Z,0.00
2018-01-26T02:56:11.502Z,0.00
2018-01-26T02:57:11.479Z,0.00
2018-01-26T02:58:11.456Z,0.00
2018-01-26T02:59:11.435Z,0.00
2018-01-26T03:00:11.412Z,0.00
2018-01-26T03:01:11.389Z,0.00
2018-01-26T03:02:11.365Z,0.00
2018-01-26T03:03:11.344Z,0.00
2018-01-26T03:04:11.321Z,0.00
2018-01-26T03:05:11.301Z,0.00
2018-01-26T03:06:11.276Z,0.00
2018-01-26T03:07:11.252Z,0.00
2018-01-26T03:08:11.231Z,0.00
2018-01-26T03:09:11.206Z,0.00
2018-01-26T03:10:11.184Z,0.00
2018-01-26T03:11:11.163Z,0.00
2018-01-26T03:12:11.140Z,0.00
2018-01-26T03:13:11.117Z,0.00
2018-01-26T03:14:11.093Z,0.00
2018-01-26T03:15:11.072Z,0.00
2018-01-26T03:16:11.049Z,0.00
2018-01-26T03:17:11.026Z,0.00
2018-01-26T03:18:11.004Z,0.00
2018-01-26T03:19:10.980Z,0.00
2018-01-26T03:20:10.959Z,0.00
2018-01-26T03:21:10.936Z,0.00
2018-01-26T03:22:10.912Z,0.00
2018-01-26T03:23:10.892Z,0.00
2018-01-26T03:24:10.869Z,0.00
2018-01-26T03:25:10.844Z,0.00
2018-01-26T03:26:10.823Z,0.00
2018-01-26T03:27:10.801Z,0.00
2018-01-26T03:28:10.777Z,0.00
2018-01-26T03:29:10.755Z,0.00
2018-01-26T03:30:10.732Z,0.00
2018-01-26T03:31:10.710Z,0.00
2018-01-26T03:32:10.687Z,0.00
2018-01-26T03:33:10.664Z,0.00
2018-01-26T03:34:10.641Z,0.00
2018-01-26T03:35:10.619Z,0.00
2018-01-26T03:36:10.597Z,0.00
2018-01-26T03:37:10.574Z,0.00
2018-01-26T03:38:10.551Z,0.00
2018-01-26T03:39:10.528Z,0.00
2018-01-26T03:40:10.507Z,0.00
2018-01-26T03:41:10.484Z,0.00
2018-01-26T03:42:10.459Z,0.00
2018-01-26T03:43:10.436Z,0.00
2018-01-26T03:44:10.415Z,0.00
2018-01-26T03:45:10.395Z,0.00
2018-01-26T03:46:10.369Z,0.00
2018-01-26T03:47:10.346Z,0.00
2018-01-26T03:48:10.324Z,0.00
2018-01-26T03:49:10.301Z,0.00
2018-01-26T03:50:10.278Z,0.00
2018-01-26T03:51:10.256Z,0.00
2018-01-26T03:52:10.232Z,0.00
2018-01-26T03:53:10.209Z,0.00
2018-01-26T03:54:10.185Z,0.00
2018-01-26T03:55:10.162Z,0.00
2018-01-26T03:56:10.140Z,0.00
2018-01-26T03:57:10.114Z,0.00
2018-01-26T03:58:10.092Z,0.00
2018-01-26T03:59:10.070Z,0.00
2018-01-26T04:00:10.047Z,0.00
2018-01-26T04:01:10.022Z,0.00
2018-01-26T04:02:10.000Z,0.00
2018-01-26T04:03:09.976Z,0.00
2018-01-26T04:04:09.954Z,0.00
2018-01-26T04:05:09.929Z,0.00
2018-01-26T04:06:09.906Z,0.00
2018-01-26T04:07:09.884Z,0.00
2018-01-26T04:08:09.861Z,0.00
2018-01-26T04:09:09.837Z,0.00
2018-01-26T04:10:09.814Z,0.00
2018-01-26T04:11:09.791Z,0.00
2018-01-26T04:12:09.776Z,0.00
2018-01-26T04:13:09.745Z,0.00
2018-01-26T04:14:09.720Z,0.00
2018-01-26T04:15:09.698Z,0.00
2018-01-26T04:16:09.674Z,0.00
2018-01-26T04:17:09.651Z,0.00
2018-01-26T04:18:09.628Z,0.00
2018-01-26T04:19:09.606Z,0.00
2018-01-26T04:20:09.582Z,0.00
2018-01-26T04:21:09.558Z,0.00
2018-01-26T04:22:09.535Z,0.00
2018-01-26T04:23:09.513Z,0.00
2018-01-26T04:24:09.489Z,0.00
2018-01-26T04:25:09.465Z,0.00
2018-01-26T04:26:09.443Z,0.00
2018-01-26T04:27:09.421Z,0.00
2018-01-26T04:28:09.398Z,0.00
2018-01-26T04:29:09.373Z,0.00
2018-01-26T04:30:09.351Z,0.00
2018-01-26T04:31:09.329Z,0.00
2018-01-26T04:32:09.307Z,0.00
2018-01-26T04:33:09.289Z,0.00
2018-01-26T04:34:09.258Z,0.00
2018-01-26T04:35:09.241Z,0.00
2018-01-26T04:36:09.216Z,0.00
2018-01-26T04:37:09.190Z,0.00
2018-01-26T04:38:09.167Z,0.00
2018-01-26T04:39:09.144Z,0.00
2018-01-26T04:40:09.121Z,0.00
2018-01-26T04:41:09.098Z,0.00
2018-01-26T04:42:09.074Z,0.00
2018-01-26T04:43:09.053Z,0.00
2018-01-26T04:44:09.030Z,0.00
2018-01-26T04:45:09.010Z,0.00
2018-01-26T04:46:08.983Z,0.00
2018-01-26T04:47:08.960Z,0.00
2018-01-26T04:48:08.938Z,0.00
2018-01-26T04:49:08.915Z,0.00
2018-01-26T04:50:08.891Z,0.00
2018-01-26T04:51:08.869Z,0.00
2018-01-26T04:52:08.846Z,0.00
2018-01-26T04:53:08.822Z,0.00
2018-01-26T04:54:08.799Z,0.00
2018-01-26T04:55:08.776Z,0.00
2018-01-26T04:56:08.754Z,0.00
2018-01-26T04:57:08.729Z,0.00
2018-01-26T04:58:08.707Z,0.00
2018-01-26T04:59:08.683Z,0.00
2018-01-26T05:00:08.661Z,0.00
2018-01-26T05:01:08.637Z,0.00
2018-01-26T05:02:08.618Z,0.00
2018-01-26T05:03:08.592Z,0.00
2018-01-26T05:04:08.581Z,0.00
2018-01-26T05:05:08.545Z,0.00
2018-01-26T05:06:08.524Z,0.00
2018-01-26T05:07:08.500Z,0.00
2018-01-26T05:08:08.478Z,0.00
2018-01-26T05:09:08.453Z,0.00
2018-01-26T05:10:08.431Z,0.00
2018-01-26T05:11:08.408Z,0.00
2018-01-26T05:12:08.386Z,0.00
2018-01-26T05:13:08.361Z,0.00
2018-01-26T05:14:08.338Z,0.00
2018-01-26T05:15:08.314Z,0.00
2018-01-26T05:16:08.294Z,0.00
2018-01-26T05:17:08.270Z,0.00
2018-01-26T05:18:08.246Z,0.00
2018-01-26T05:19:08.224Z,0.00
2018-01-26T05:20:08.200Z,0.00
2018-01-26T05:21:08.177Z,0.00
2018-01-26T05:22:08.153Z,0.00
2018-01-26T05:23:08.131Z,0.00
2018-01-26T05:24:08.109Z,0.00
2018-01-26T05:25:08.084Z,0.00
2018-01-26T05:26:08.061Z,0.00
2018-01-26T05:27:08.039Z,0.00
2018-01-26T05:28:08.016Z,0.00
2018-01-26T05:29:07.991Z,0.00
2018-01-26T05:30:07.969Z,0.00
2018-01-26T05:31:07.946Z,0.00
2018-01-26T05:32:07.923Z,0.00
2018-01-26T05:33:07.898Z,0.00
2018-01-26T05:34:07.876Z,0.00
2018-01-26T05:35:07.854Z,0.00
2018-01-26T05:36:07.831Z,0.00
2018-01-26T05:37:07.808Z,0.00
2018-01-26T05:38:07.793Z,0.00
2018-01-26T05:39:07.762Z,0.00
2018-01-26T05:40:07.740Z,0.00
2018-01-26T05:41:07.714Z,0.00
2018-01-26T05:42:07.692Z,0.00
2018-01-26T05:43:07.669Z,0.00
2018-01-26T05:44:07.646Z,0.00
2018-01-26T05:45:07.623Z,0.00
2018-01-26T05:46:07.601Z,0.00
2018-01-26T05:47:07.577Z,0.00
2018-01-26T05:48:07.555Z,0.00
2018-01-26T05:49:07.532Z,0.00
2018-01-26T05:50:07.507Z,0.00
2018-01-26T05:51:07.485Z,0.00
2018-01-26T05:52:07.462Z,0.00
2018-01-26T05:53:07.439Z,0.00
2018-01-26T05:54:07.416Z,0.00
2018-01-26T05:55:07.394Z,0.00
2018-01-26T05:56:07.373Z,0.00
2018-01-26T05:57:07.347Z,0.00
2018-01-26T05:58:07.326Z,0.00
2018-01-26T05:59:07.301Z,0.00
2018-01-26T06:00:07.278Z,0.00
2018-01-26T06:01:07.254Z,0.00
2018-01-26T06:02:07.232Z,0.00
2018-01-26T06:03:07.210Z,0.00
2018-01-26T06:04:07.186Z,0.00
2018-01-26T06:05:07.163Z,0.00
2018-01-26T06:06:07.138Z,0.00
2018-01-26T06:07:07.117Z,0.00
2018-01-26T06:08:07.096Z,0.00
2018-01-26T06:09:07.070Z,0.00
2018-01-26T06:10:07.046Z,0.00
2018-01-26T06:11:07.024Z,0.00
2018-01-26T06:12:07.002Z,0.00
2018-01-26T06:13:06.978Z,0.00
2018-01-26T06:14:06.955Z,0.00
2018-01-26T06:15:06.933Z,0.00
2018-01-26T06:16:06.913Z,0.00
2018-01-26T06:17:06.886Z,0.00
2018-01-26T06:18:06.864Z,0.00
2018-01-26T06:19:06.839Z,0.00
2018-01-26T06:20:06.818Z,0.00
2018-01-26T06:21:06.794Z,0.00
2018-01-26T06:22:06.772Z,0.00
2018-01-26T06:23:06.748Z,0.00
2018-01-26T06:24:06.725Z,0.00
2018-01-26T06:25:06.701Z,0.00
2018-01-26T06:26:06.681Z,0.00
2018-01-26T06:27:06.657Z,0.00
2018-01-26T06:28:06.633Z,0.00
2018-01-26T06:29:06.610Z,0.00
2018-01-26T06:30:06.588Z,0.00
2018-01-26T06:31:06.565Z,0.00
2018-01-26T06:32:06.542Z,0.00
2018-01-26T06:33:06.518Z,0.00
2018-01-26T06:34:06.496Z,0.00
2018-01-26T06:35:06.472Z,0.00
2018-01-26T06:36:06.451Z,0.00
2018-01-26T06:37:06.426Z,0.00
2018-01-26T06:38:06.403Z,0.00
2018-01-26T06:39:06.381Z,0.00
2018-01-26T06:40:06.359Z,0.00
2018-01-26T06:41:06.335Z,0.00
2018-01-26T06:42:06.312Z,0.00
2018-01-26T06:43:06.289Z,0.00
2018-01-26T06:44:06.267Z,0.00
2018-01-26T06:45:06.242Z,0.00
2018-01-26T06:46:06.221Z,0.00
2018-01-26T06:47:06.199Z,0.00
2018-01-26T06:48:06.177Z,0.00
2018-01-26T06:49:06.152Z,0.00
2018-01-26T06:50:06.132Z,0.00
2018-01-26T06:51:06.106Z,0.00
2018-01-26T06:52:06.086Z,0.00
2018-01-26T06:53:06.059Z,0.00
2018-01-26T06:54:06.036Z,0.00
2018-01-26T06:55:06.015Z,0.00
2018-01-26T06:56:05.991Z,0.00
2018-01-26T06:57:05.968Z,0.00
2018-01-26T06:58:05.945Z,0.00
2018-01-26T06:59:05.922Z,0.00
2018-01-26T07:00:05.900Z,0.00
2018-01-26T07:01:05.876Z,0.00
2018-01-26T07:02:05.853Z,0.00
2018-01-26T07:03:05.830Z,0.00
2018-01-26T07:04:05.808Z,4.00
2018-01-26T07:05:05.784Z,4.00
2018-01-26T07:06:05.761Z,4.00
2018-01-26T07:07:05.739Z,0.00
2018-01-26T07:08:05.715Z,4.00
2018-01-26T07:09:05.693Z,4.00
2018-01-26T07:10:05.668Z,4.00
2018-01-26T07:11:05.647Z,4.00
2018-01-26T07:12:05.623Z,8.00
2018-01-26T07:13:05.600Z,4.00
2018-01-26T07:14:05.609Z,8.00
2018-01-26T07:15:05.554Z,8.00
2018-01-26T07:16:05.531Z,8.00
2018-01-26T07:17:05.507Z,12.00
2018-01-26T07:18:05.485Z,12.00
2018-01-26T07:19:05.461Z,12.00
2018-01-26T07:20:05.439Z,12.00
2018-01-26T07:21:05.416Z,16.00
2018-01-26T07:22:05.396Z,16.00
2018-01-26T07:23:05.372Z,20.00
2018-01-26T07:24:05.347Z,20.00
2018-01-26T07:25:05.324Z,16.00
2018-01-26T07:26:05.301Z,20.00
2018-01-26T07:27:05.278Z,20.00
2018-01-26T07:28:05.256Z,24.00
2018-01-26T07:29:05.232Z,24.00
2018-01-26T07:30:05.210Z,28.00
2018-01-26T07:31:05.186Z,28.00
2018-01-26T07:32:05.164Z,32.00
2018-01-26T07:33:05.140Z,32.00
2018-01-26T07:34:05.118Z,36.00
2018-01-26T07:35:05.095Z,36.00
2018-01-26T07:36:05.071Z,40.00
2018-01-26T07:37:05.050Z,40.00
2018-01-26T07:38:05.025Z,44.00
2018-01-26T07:39:05.003Z,44.00
2018-01-26T07:40:04.980Z,44.00
2018-01-26T07:41:04.955Z,48.00
2018-01-26T07:42:04.933Z,48.00
2018-01-26T07:43:04.910Z,56.00
2018-01-26T07:44:04.888Z,60.00
2018-01-26T07:45:04.864Z,64.00
2018-01-26T07:46:04.842Z,68.00
2018-01-26T07:47:04.819Z,76.00
2018-01-26T07:48:04.795Z,80.00
2018-01-26T07:49:04.773Z,88.00
2018-01-26T07:50:04.749Z,92.00
2018-01-26T07:51:04.726Z,96.00
2018-01-26T07:52:04.704Z,104.00
2018-01-26T07:53:04.679Z,108.00
2018-01-26T07:54:04.656Z,116.00
2018-01-26T07:55:04.636Z,120.00
2018-01-26T07:56:04.611Z,124.00
2018-01-26T07:57:04.588Z,128.00
2018-01-26T07:58:04.566Z,132.00
2018-01-26T07:59:04.543Z,136.00
2018-01-26T08:00:04.526Z,140.00
2018-01-26T08:01:04.496Z,148.00
2018-01-26T08:02:04.477Z,164.00
2018-01-26T08:03:04.496Z,172.00
2018-01-26T08:04:04.428Z,184.00
2018-01-26T08:05:04.405Z,188.00
2018-01-26T08:06:05.836Z,192.00
2018-01-26T08:07:04.360Z,200.00
2018-01-26T08:08:04.337Z,208.00
2018-01-26T08:09:04.313Z,228.00
2018-01-26T08:10:04.291Z,240.00
2018-01-26T08:11:04.269Z,264.00
2018-01-26T08:12:04.246Z,280.00
2018-01-26T08:13:04.256Z,288.00
2018-01-26T08:14:04.200Z,292.00
2018-01-26T08:15:04.177Z,296.00
2018-01-26T08:16:04.154Z,300.00
2018-01-26T08:17:04.130Z,304.00
2018-01-26T08:18:04.109Z,312.00
2018-01-26T08:19:04.085Z,320.00
2018-01-26T08:20:04.063Z,340.00
2018-01-26T08:21:04.041Z,348.00
2018-01-26T08:22:04.017Z,360.00
2018-01-26T08:23:03.996Z,364.00
2018-01-26T08:24:03.972Z,376.00
2018-01-26T08:25:03.949Z,380.00
2018-01-26T08:26:03.925Z,376.00
2018-01-26T08:27:03.903Z,376.00
2018-01-26T08:28:03.881Z,388.00
2018-01-26T08:29:03.858Z,408.00
2018-01-26T08:30:03.835Z,436.00
2018-01-26T08:31:03.813Z,460.00
2018-01-26T08:32:03.790Z,488.00
2018-01-26T08:33:03.767Z,520.00
2018-01-26T08:34:03.745Z,540.00
2018-01-26T08:35:03.721Z,548.00
2018-01-26T08:36:03.700Z,536.00
2018-01-26T08:37:03.676Z,524.00
2018-01-26T08:38:03.653Z,524.00
2018-01-26T08:39:03.630Z,532.00
2018-01-26T08:40:03.609Z,556.00
2018-01-26T08:41:03.585Z,548.00
2018-01-26T08:42:03.564Z,556.00
2018-01-26T08:43:03.541Z,564.00
2018-01-26T08:44:03.517Z,572.00
2018-01-26T08:45:03.495Z,564.00
2018-01-26T08:46:03.472Z,548.00
2018-01-26T08:47:03.451Z,536.00
2018-01-26T08:48:03.428Z,536.00
2018-01-26T08:49:03.404Z,540.00
2018-01-26T08:50:03.381Z,548.00
2018-01-26T08:51:03.359Z,564.00
2018-01-26T08:52:03.338Z,568.00
2018-01-26T08:53:03.312Z,560.00
2018-01-26T08:54:03.289Z,556.00
2018-01-26T08:55:03.268Z,560.00
2018-01-26T08:56:03.275Z,588.00
2018-01-26T08:57:03.221Z,608.00
2018-01-26T08:58:03.199Z,624.00
2018-01-26T08:59:03.176Z,644.00
2018-01-26T09:00:03.155Z,652.00
2018-01-26T09:01:03.135Z,668.00
2018-01-26T09:02:03.109Z,692.00
2018-01-26T09:03:03.086Z,700.00
2018-01-26T09:04:03.063Z,712.00
2018-01-26T09:05:03.040Z,756.00
2018-01-26T09:06:03.018Z,788.00
2018-01-26T09:07:03.032Z,848.00
2018-01-26T09:08:02.973Z,884.00
2018-01-26T09:09:02.950Z,900.00
2018-01-26T09:10:02.928Z,904.00
2018-01-26T09:11:02.904Z,900.00
2018-01-26T09:12:02.883Z,924.00
2018-01-26T09:13:02.858Z,976.00
2018-01-26T09:14:02.839Z,1016.00
2018-01-26T09:15:02.848Z,1020.00
2018-01-26T09:16:02.791Z,1004.00
2018-01-26T09:17:02.768Z,956.00
2018-01-26T09:18:02.747Z,900.00
2018-01-26T09:19:02.728Z,880.00
2018-01-26T09:20:02.701Z,924.00
2018-01-26T09:21:02.677Z,952.00
2018-01-26T09:22:02.655Z,976.00
2018-01-26T09:23:02.631Z,972.00
2018-01-26T09:24:02.609Z,972.00
2018-01-26T09:25:02.586Z,932.00
2018-01-26T09:26:02.565Z,920.00
2018-01-26T09:27:02.541Z,940.00
2018-01-26T09:28:02.524Z,948.00
2018-01-26T09:29:02.496Z,952.00
2018-01-26T09:30:02.474Z,940.00
2018-01-26T09:31:02.451Z,892.00
2018-01-26T09:32:02.429Z,860.00
2018-01-26T09:33:02.405Z,852.00
2018-01-26T09:34:02.382Z,816.00
2018-01-26T09:35:02.360Z,836.00
2018-01-26T09:36:02.338Z,884.00
2018-01-26T09:37:02.314Z,920.00
2018-01-26T09:38:02.292Z,932.00
2018-01-26T09:39:02.270Z,956.00
2018-01-26T09:40:02.247Z,1012.00
2018-01-26T09:41:02.225Z,1068.00
2018-01-26T09:42:02.202Z,1124.00
2018-01-26T09:43:02.179Z,1176.00
2018-01-26T09:44:02.157Z,1200.00
2018-01-26T09:45:02.135Z,1208.00
2018-01-26T09:46:02.112Z,1220.00
2018-01-26T09:47:02.092Z,1244.00
2018-01-26T09:48:02.068Z,1256.00
2018-01-26T09:49:02.043Z,1156.00
2018-01-26T09:50:02.022Z,1160.00
2018-01-26T09:51:01.999Z,1188.00
2018-01-26T09:52:01.978Z,1232.00
2018-01-26T09:53:01.953Z,1112.00
2018-01-26T09:54:01.932Z,1092.00
2018-01-26T09:55:01.909Z,1024.00
2018-01-26T09:56:01.887Z,948.00
2018-01-26T09:57:01.864Z,860.00
2018-01-26T09:58:01.841Z,860.00
2018-01-26T09:59:01.820Z,924.00
2018-01-26T10:00:01.797Z,1004.00
2018-01-26T10:01:01.774Z,1140.00
2018-01-26T10:02:01.751Z,1172.00
2018-01-26T10:03:01.729Z,1168.00
2018-01-26T10:04:01.708Z,1200.00
2018-01-26T10:05:01.687Z,1192.00
2018-01-26T10:06:01.663Z,1192.00
2018-01-26T10:07:01.642Z,1200.00
2018-01-26T10:08:01.619Z,1180.00
2018-01-26T10:09:01.595Z,1128.00
2018-01-26T10:10:01.573Z,1072.00
2018-01-26T10:11:01.558Z,1040.00
2018-01-26T10:12:01.530Z,1084.00
2018-01-26T10:13:01.507Z,1144.00
2018-01-26T10:14:01.485Z,1124.00
2018-01-26T10:15:01.463Z,1128.00
2018-01-26T10:16:01.441Z,1136.00
2018-01-26T10:17:01.417Z,1192.00
2018-01-26T10:18:01.396Z,1200.00
2018-01-26T10:19:01.374Z,1244.00
2018-01-26T10:20:01.352Z,1172.00
2018-01-26T10:21:01.329Z,1112.00
2018-01-26T10:22:01.307Z,1100.00
2018-01-26T10:23:01.286Z,1128.00
2018-01-26T10:24:01.264Z,1304.00
2018-01-26T10:25:01.240Z,1424.00
2018-01-26T10:26:01.218Z,1600.00
2018-01-26T10:27:01.196Z,1760.00
2018-01-26T10:28:01.175Z,1784.00
2018-01-26T10:29:01.152Z,1704.00
2018-01-26T10:30:01.130Z,1776.00
2018-01-26T10:31:01.109Z,1820.00
2018-01-26T10:32:01.087Z,1796.00
2018-01-26T10:33:01.067Z,1764.00
2018-01-26T10:34:01.042Z,1676.00
2018-01-26T10:35:01.021Z,1676.00
2018-01-26T10:36:01.000Z,1648.00
2018-01-26T10:37:00.978Z,1896.00
2018-01-26T10:38:00.956Z,1968.00
2018-01-26T10:39:00.935Z,1848.00
2018-01-26T10:40:00.913Z,1844.00
2018-01-26T10:41:00.890Z,1628.00
2018-01-26T10:42:00.870Z,1656.00
2018-01-26T10:43:00.848Z,1680.00
2018-01-26T10:44:00.826Z,1652.00
2018-01-26T10:45:00.809Z,1608.00
2018-01-26T10:46:00.784Z,1596.00
2018-01-26T10:47:00.763Z,1460.00
2018-01-26T10:48:00.741Z,1300.00
2018-01-26T10:49:00.719Z,1116.00
2018-01-26T10:50:00.699Z,1072.00
2018-01-26T10:51:00.677Z,1132.00
2018-01-26T10:52:00.656Z,1224.00
2018-01-26T10:53:00.633Z,1212.00
2018-01-26T10:54:00.613Z,1284.00
2018-01-26T10:55:00.593Z,1356.00
2018-01-26T10:56:00.570Z,1364.00
2018-01-26T10:57:00.548Z,1272.00
2018-01-26T10:58:00.526Z,1288.00
2018-01-26T10:59:00.506Z,1292.00
2018-01-26T11:00:00.484Z,1288.00
2018-01-26T11:01:00.462Z,1416.00
2018-01-26T11:02:00.440Z,1492.00
2018-01-26T11:03:00.418Z,1624.00
2018-01-26T11:04:00.398Z,1656.00
2018-01-26T11:05:00.376Z,1484.00
2018-01-26T11:06:00.355Z,1560.00
2018-01-26T11:07:00.332Z,1648.00
2018-01-26T11:08:00.312Z,1820.00
2018-01-26T11:09:00.291Z,1544.00
2018-01-26T11:10:00.268Z,1560.00
2018-01-26T11:11:00.246Z,1592.00
2018-01-26T11:12:00.225Z,1276.00
2018-01-26T11:13:00.203Z,1352.00
2018-01-26T11:14:00.182Z,1292.00
2018-01-26T11:15:00.161Z,1300.00
2018-01-26T11:16:00.142Z,1232.00
2018-01-26T11:17:00.117Z,1208.00
2018-01-26T11:18:00.096Z,1316.00
2018-01-26T11:19:00.074Z,1512.00
2018-01-26T11:20:00.056Z,1684.00
2018-01-26T11:21:00.030Z,1680.00
2018-01-26T11:22:00.011Z,1524.00
2018-01-26T11:22:59.987Z,1400.00
2018-01-26T11:23:59.967Z,1520.00
2018-01-26T11:24:59.944Z,1580.00
2018-01-26T11:25:59.923Z,1980.00
2018-01-26T11:26:59.901Z,2024.00
2018-01-26T11:27:59.880Z,1412.00
2018-01-26T11:28:59.857Z,1112.00
2018-01-26T11:29:59.838Z,1500.00
2018-01-26T11:30:59.815Z,1576.00
2018-01-26T11:31:59.793Z,1524.00
2018-01-26T11:32:59.771Z,1924.00
2018-01-26T11:33:59.750Z,1600.00
2018-01-26T11:34:59.729Z,1080.00
2018-01-26T11:35:59.708Z,1044.00
2018-01-26T11:36:59.686Z,1380.00
2018-01-26T11:37:59.665Z,1548.00
2018-01-26T11:38:59.643Z,1792.00
2018-01-26T11:39:59.621Z,1608.00
2018-01-26T11:40:59.600Z,1568.00
2018-01-26T11:41:59.579Z,1612.00
2018-01-26T11:42:59.557Z,1336.00
2018-01-26T11:43:59.535Z,1164.00
2018-01-26T11:44:59.513Z,1188.00
2018-01-26T11:45:59.491Z,1244.00
2018-01-26T11:46:59.471Z,1592.00
2018-01-26T11:47:59.450Z,1504.00
2018-01-26T11:48:59.427Z,1556.00
2018-01-26T11:49:59.406Z,1552.00
2018-01-26T11:50:59.386Z,1680.00
2018-01-26T11:51:59.364Z,1648.00
2018-01-26T11:52:59.343Z,1732.00
2018-01-26T11:53:59.321Z,1696.00
2018-01-26T11:54:59.301Z,1876.00
2018-01-26T11:55:59.279Z,1596.00
2018-01-26T11:56:59.257Z,1340.00
2018-01-26T11:57:59.236Z,1332.00
2018-01-26T11:58:59.217Z,1296.00
2018-01-26T11:59:59.194Z,1296.00
2018-01-26T12:00:59.173Z,1300.00
2018-01-26T12:01:59.151Z,1448.00
2018-01-26T12:02:59.129Z,1612.00
2018-01-26T12:03:59.108Z,1680.00
2018-01-26T12:04:59.086Z,1728.00
2018-01-26T12:05:59.066Z,1704.00
2018-01-26T12:06:59.045Z,1688.00
2018-01-26T12:07:59.022Z,1592.00
2018-01-26T12:08:59.001Z,1520.00
2018-01-26T12:09:58.981Z,1404.00
2018-01-26T12:10:58.959Z,1424.00
2018-01-26T12:11:58.938Z,1740.00
2018-01-26T12:12:58.915Z,1596.00
2018-01-26T12:13:58.895Z,1380.00
2018-01-26T12:14:58.872Z,1144.00
2018-01-26T12:15:58.851Z,1088.00
2018-01-26T12:16:58.830Z,1136.00
2018-01-26T12:17:58.809Z,1148.00
2018-01-26T12:18:58.787Z,1220.00
2018-01-26T12:19:58.765Z,1352.00
2018-01-26T12:20:58.744Z,1400.00
2018-01-26T12:21:58.722Z,1520.00
2018-01-26T12:22:58.701Z,1644.00
2018-01-26T12:23:58.680Z,1692.00
2018-01-26T12:24:58.656Z,1644.00
2018-01-26T12:25:58.636Z,1560.00
2018-01-26T12:26:58.616Z,1508.00
2018-01-26T12:27:58.593Z,1460.00
2018-01-26T12:28:58.570Z,1564.00
2018-01-26T12:29:58.549Z,1596.00
2018-01-26T12:30:58.529Z,1644.00
2018-01-26T12:31:58.508Z,1700.00
2018-01-26T12:32:58.491Z,1684.00
2018-01-26T12:33:58.464Z,1464.00
2018-01-26T12:34:58.442Z,1480.00
2018-01-26T12:35:58.422Z,1512.00
2018-01-26T12:36:58.400Z,1624.00
2018-01-26T12:37:58.378Z,1672.00
2018-01-26T12:38:58.358Z,1456.00
2018-01-26T12:39:58.337Z,1316.00
2018-01-26T12:40:58.318Z,1320.00
2018-01-26T12:41:58.294Z,1328.00
2018-01-26T12:42:58.274Z,1168.00
2018-01-26T12:43:58.253Z,1204.00
2018-01-26T12:44:58.230Z,1144.00
2018-01-26T12:45:58.210Z,1300.00
2018-01-26T12:46:58.188Z,1336.00
2018-01-26T12:47:58.181Z,1360.00
2018-01-26T12:48:58.160Z,1380.00
2018-01-26T12:49:58.138Z,1464.00